sensor_id;sensor_type;location;lat;lon;timestamp;temperature;humidity
23568;DHT22;11962;50.838;4.430;2022-10-24T00:01:30;17.50;99.90
23568;DHT22;11962;50.838;4.430;2022-10-24T00:03:56;17.50;99.90
23568;DHT22;11962;50.838;4.430;2022-10-24T00:06:22;17.50;99.90
23568;DHT22;11962;50.838;4.430;2022-10-24T00:08:48;17.50;99.90
23568;DHT22;11962;50.838;4.430;2022-10-24T00:11:20;17.60;99.90
23568;DHT22;11962;50.838;4.430;2022-10-24T00:13:45;17.70;99.90
23568;DHT22;11962;50.838;4.430;2022-10-24T00:16:11;17.70;99.90
23568;DHT22;11962;50.838;4.430;2022-10-24T00:18:37;17.80;99.90
23568;DHT22;11962;50.838;4.430;2022-10-24T00:21:04;17.70;99.90
23568;DHT22;11962;50.838;4.430;2022-10-24T00:23:29;17.70;99.90
23568;DHT22;11962;50.838;4.430;2022-10-24T00:25:55;17.80;99.90
23568;DHT22;11962;50.838;4.430;2022-10-24T00:28:21;17.80;99.90
23568;DHT22;11962;50.838;4.430;2022-10-24T00:30:51;17.90;99.90
23568;DHT22;11962;50.838;4.430;2022-10-24T00:33:17;17.80;99.90
23568;DHT22;11962;50.838;4.430;2022-10-24T00:35:42;17.80;99.90
23568;DHT22;11962;50.838;4.430;2022-10-24T00:38:08;17.80;99.90
23568;DHT22;11962;50.838;4.430;2022-10-24T00:40:34;17.80;99.90
23568;DHT22;11962;50.838;4.430;2022-10-24T00:42:59;17.80;99.90
23568;DHT22;11962;50.838;4.430;2022-10-24T00:45:47;17.80;99.90
23568;DHT22;11962;50.838;4.430;2022-10-24T00:50:50;17.80;99.90
23568;DHT22;11962;50.838;4.430;2022-10-24T00:53:17;17.80;99.90
23568;DHT22;11962;50.838;4.430;2022-10-24T00:55:46;17.80;99.90
23568;DHT22;11962;50.838;4.430;2022-10-24T00:58:14;17.80;99.90
23568;DHT22;11962;50.838;4.430;2022-10-24T01:00:42;17.80;99.90
23568;DHT22;11962;50.838;4.430;2022-10-24T01:03:10;17.80;99.90
23568;DHT22;11962;50.838;4.430;2022-10-24T01:05:42;17.80;99.90
23568;DHT22;11962;50.838;4.430;2022-10-24T01:11:05;17.70;99.90
23568;DHT22;11962;50.838;4.430;2022-10-24T01:16:53;17.70;99.90
23568;DHT22;11962;50.838;4.430;2022-10-24T01:19:43;17.70;99.90
23568;DHT22;11962;50.838;4.430;2022-10-24T01:22:31;17.70;99.90
23568;DHT22;11962;50.838;4.430;2022-10-24T01:28:21;17.60;99.90
23568;DHT22;11962;50.838;4.430;2022-10-24T01:31:14;17.70;99.90
23568;DHT22;11962;50.838;4.430;2022-10-24T01:33:48;17.70;99.90
23568;DHT22;11962;50.838;4.430;2022-10-24T01:36:22;17.60;99.90
23568;DHT22;11962;50.838;4.430;2022-10-24T01:38:58;17.60;99.90
23568;DHT22;11962;50.838;4.430;2022-10-24T01:41:27;17.60;99.90
23568;DHT22;11962;50.838;4.430;2022-10-24T01:44:04;17.60;99.90
23568;DHT22;11962;50.838;4.430;2022-10-24T01:46:38;17.70;99.90
23568;DHT22;11962;50.838;4.430;2022-10-24T01:49:09;17.70;99.90
23568;DHT22;11962;50.838;4.430;2022-10-24T01:51:38;17.60;99.90
23568;DHT22;11962;50.838;4.430;2022-10-24T01:54:06;17.60;99.90
23568;DHT22;11962;50.838;4.430;2022-10-24T01:56:33;17.70;99.90
23568;DHT22;11962;50.838;4.430;2022-10-24T02:02:17;17.60;99.90
23568;DHT22;11962;50.838;4.430;2022-10-24T02:04:45;17.60;99.90
23568;DHT22;11962;50.838;4.430;2022-10-24T02:07:13;17.60;99.90
23568;DHT22;11962;50.838;4.430;2022-10-24T02:09:42;17.60;99.90
23568;DHT22;11962;50.838;4.430;2022-10-24T02:12:08;17.70;99.90
23568;DHT22;11962;50.838;4.430;2022-10-24T02:14:50;17.60;99.90
23568;DHT22;11962;50.838;4.430;2022-10-24T02:17:17;17.60;99.90
23568;DHT22;11962;50.838;4.430;2022-10-24T02:19:43;17.60;99.90
23568;DHT22;11962;50.838;4.430;2022-10-24T02:25:10;17.50;99.90
23568;DHT22;11962;50.838;4.430;2022-10-24T02:27:49;17.50;99.90
23568;DHT22;11962;50.838;4.430;2022-10-24T02:30:28;17.50;99.90
23568;DHT22;11962;50.838;4.430;2022-10-24T02:32:57;17.50;99.90
23568;DHT22;11962;50.838;4.430;2022-10-24T02:35:29;17.50;99.90
23568;DHT22;11962;50.838;4.430;2022-10-24T02:38:12;17.50;99.90
23568;DHT22;11962;50.838;4.430;2022-10-24T02:40:41;17.50;99.90
23568;DHT22;11962;50.838;4.430;2022-10-24T02:43:08;17.50;99.90
23568;DHT22;11962;50.838;4.430;2022-10-24T02:45:36;17.60;99.90
23568;DHT22;11962;50.838;4.430;2022-10-24T02:48:04;17.60;99.90
23568;DHT22;11962;50.838;4.430;2022-10-24T02:50:31;17.60;99.90
23568;DHT22;11962;50.838;4.430;2022-10-24T02:52:57;17.60;99.90
23568;DHT22;11962;50.838;4.430;2022-10-24T02:55:23;17.60;99.90
23568;DHT22;11962;50.838;4.430;2022-10-24T02:57:48;17.60;99.90
23568;DHT22;11962;50.838;4.430;2022-10-24T03:00:19;17.60;99.90
23568;DHT22;11962;50.838;4.430;2022-10-24T03:02:45;17.60;99.90
23568;DHT22;11962;50.838;4.430;2022-10-24T03:05:11;17.50;99.90
23568;DHT22;11962;50.838;4.430;2022-10-24T03:07:37;17.50;99.90
23568;DHT22;11962;50.838;4.430;2022-10-24T03:10:02;17.50;99.90
23568;DHT22;11962;50.838;4.430;2022-10-24T03:12:28;17.50;99.90
23568;DHT22;11962;50.838;4.430;2022-10-24T03:14:54;17.60;99.90
23568;DHT22;11962;50.838;4.430;2022-10-24T03:17:28;17.60;99.90
23568;DHT22;11962;50.838;4.430;2022-10-24T03:19:54;17.60;99.90
23568;DHT22;11962;50.838;4.430;2022-10-24T03:22:19;17.60;99.90
23568;DHT22;11962;50.838;4.430;2022-10-24T03:24:45;17.70;99.90
23568;DHT22;11962;50.838;4.430;2022-10-24T03:27:11;17.80;99.90
23568;DHT22;11962;50.838;4.430;2022-10-24T03:29:36;17.80;99.90
23568;DHT22;11962;50.838;4.430;2022-10-24T03:32:14;17.80;99.90
23568;DHT22;11962;50.838;4.430;2022-10-24T03:34:40;17.70;99.90
23568;DHT22;11962;50.838;4.430;2022-10-24T03:37:05;17.60;99.90
23568;DHT22;11962;50.838;4.430;2022-10-24T03:39:31;17.50;99.90
23568;DHT22;11962;50.838;4.430;2022-10-24T03:41:59;17.60;99.90
23568;DHT22;11962;50.838;4.430;2022-10-24T03:44:25;17.50;99.90
23568;DHT22;11962;50.838;4.430;2022-10-24T03:47:00;17.50;99.90
23568;DHT22;11962;50.838;4.430;2022-10-24T03:49:25;17.50;99.90
23568;DHT22;11962;50.838;4.430;2022-10-24T03:51:51;17.40;99.90
23568;DHT22;11962;50.838;4.430;2022-10-24T03:54:17;17.50;99.90
23568;DHT22;11962;50.838;4.430;2022-10-24T03:56:43;17.40;99.90
23568;DHT22;11962;50.838;4.430;2022-10-24T03:59:09;17.40;99.90
23568;DHT22;11962;50.838;4.430;2022-10-24T04:01:35;17.40;99.90
23568;DHT22;11962;50.838;4.430;2022-10-24T04:04:00;17.40;99.90
23568;DHT22;11962;50.838;4.430;2022-10-24T04:06:26;17.50;99.90
23568;DHT22;11962;50.838;4.430;2022-10-24T04:08:51;17.50;99.90
23568;DHT22;11962;50.838;4.430;2022-10-24T04:11:17;17.60;99.90
23568;DHT22;11962;50.838;4.430;2022-10-24T04:13:43;17.50;99.90
23568;DHT22;11962;50.838;4.430;2022-10-24T04:16:08;17.50;99.90
23568;DHT22;11962;50.838;4.430;2022-10-24T04:18:34;17.50;99.90
23568;DHT22;11962;50.838;4.430;2022-10-24T04:21:25;17.60;99.90
23568;DHT22;11962;50.838;4.430;2022-10-24T04:23:51;17.60;99.90
23568;DHT22;11962;50.838;4.430;2022-10-24T04:26:17;17.60;99.90
23568;DHT22;11962;50.838;4.430;2022-10-24T04:28:43;17.50;99.90
23568;DHT22;11962;50.838;4.430;2022-10-24T04:31:11;17.40;99.90
23568;DHT22;11962;50.838;4.430;2022-10-24T04:33:37;17.40;99.90
23568;DHT22;11962;50.838;4.430;2022-10-24T04:36:03;17.40;99.90
23568;DHT22;11962;50.838;4.430;2022-10-24T04:38:28;17.40;99.90
23568;DHT22;11962;50.838;4.430;2022-10-24T04:40:54;17.40;99.90
23568;DHT22;11962;50.838;4.430;2022-10-24T04:43:20;17.40;99.90
23568;DHT22;11962;50.838;4.430;2022-10-24T04:45:47;17.50;99.90
23568;DHT22;11962;50.838;4.430;2022-10-24T04:48:13;17.50;99.90
23568;DHT22;11962;50.838;4.430;2022-10-24T04:50:40;17.50;99.90
23568;DHT22;11962;50.838;4.430;2022-10-24T04:53:07;17.50;99.90
23568;DHT22;11962;50.838;4.430;2022-10-24T04:55:33;17.60;99.90
23568;DHT22;11962;50.838;4.430;2022-10-24T04:57:58;17.60;99.90
23568;DHT22;11962;50.838;4.430;2022-10-24T05:00:24;17.60;99.90
23568;DHT22;11962;50.838;4.430;2022-10-24T05:03:02;17.60;99.90
23568;DHT22;11962;50.838;4.430;2022-10-24T05:05:31;17.50;99.90
23568;DHT22;11962;50.838;4.430;2022-10-24T05:07:56;17.40;99.90
23568;DHT22;11962;50.838;4.430;2022-10-24T05:10:22;17.50;99.90
23568;DHT22;11962;50.838;4.430;2022-10-24T05:12:48;17.40;99.90
23568;DHT22;11962;50.838;4.430;2022-10-24T05:15:13;17.40;99.90
23568;DHT22;11962;50.838;4.430;2022-10-24T05:17:45;17.50;99.90
23568;DHT22;11962;50.838;4.430;2022-10-24T05:20:11;17.50;99.90
23568;DHT22;11962;50.838;4.430;2022-10-24T05:22:36;17.50;99.90
23568;DHT22;11962;50.838;4.430;2022-10-24T05:25:02;17.40;99.90
23568;DHT22;11962;50.838;4.430;2022-10-24T05:27:28;17.40;99.90
23568;DHT22;11962;50.838;4.430;2022-10-24T05:29:55;17.50;99.90
23568;DHT22;11962;50.838;4.430;2022-10-24T05:32:22;17.50;99.90
23568;DHT22;11962;50.838;4.430;2022-10-24T05:34:48;17.50;99.90
23568;DHT22;11962;50.838;4.430;2022-10-24T05:37:14;17.50;99.90
23568;DHT22;11962;50.838;4.430;2022-10-24T05:39:40;17.50;99.90
23568;DHT22;11962;50.838;4.430;2022-10-24T05:42:05;17.50;99.90
23568;DHT22;11962;50.838;4.430;2022-10-24T05:44:31;17.50;99.90
23568;DHT22;11962;50.838;4.430;2022-10-24T05:46:57;17.50;99.90
23568;DHT22;11962;50.838;4.430;2022-10-24T05:49:23;17.50;99.90
23568;DHT22;11962;50.838;4.430;2022-10-24T05:51:48;17.50;99.90
23568;DHT22;11962;50.838;4.430;2022-10-24T05:54:14;17.50;99.90
23568;DHT22;11962;50.838;4.430;2022-10-24T05:56:40;17.60;99.90
23568;DHT22;11962;50.838;4.430;2022-10-24T05:59:06;17.60;99.90
23568;DHT22;11962;50.838;4.430;2022-10-24T06:01:31;17.50;99.90
23568;DHT22;11962;50.838;4.430;2022-10-24T06:04:15;17.50;99.90
23568;DHT22;11962;50.838;4.430;2022-10-24T06:06:43;17.50;99.90
23568;DHT22;11962;50.838;4.430;2022-10-24T06:09:10;17.50;99.90
23568;DHT22;11962;50.838;4.430;2022-10-24T06:11:36;17.60;99.90
23568;DHT22;11962;50.838;4.430;2022-10-24T06:14:01;17.60;99.90
23568;DHT22;11962;50.838;4.430;2022-10-24T06:16:27;17.60;99.90
23568;DHT22;11962;50.838;4.430;2022-10-24T06:19:29;17.70;99.90
23568;DHT22;11962;50.838;4.430;2022-10-24T06:21:54;17.70;99.90
23568;DHT22;11962;50.838;4.430;2022-10-24T06:24:20;17.60;99.90
23568;DHT22;11962;50.838;4.430;2022-10-24T06:26:45;17.50;99.90
23568;DHT22;11962;50.838;4.430;2022-10-24T06:29:11;17.50;99.90
23568;DHT22;11962;50.838;4.430;2022-10-24T06:31:37;17.40;99.90
23568;DHT22;11962;50.838;4.430;2022-10-24T06:37:08;17.40;99.90
23568;DHT22;11962;50.838;4.430;2022-10-24T06:39:34;17.40;99.90
23568;DHT22;11962;50.838;4.430;2022-10-24T06:42:00;17.40;99.90
23568;DHT22;11962;50.838;4.430;2022-10-24T06:44:26;17.50;99.90
23568;DHT22;11962;50.838;4.430;2022-10-24T06:46:52;17.50;99.90
23568;DHT22;11962;50.838;4.430;2022-10-24T06:49:42;17.60;99.90
23568;DHT22;11962;50.838;4.430;2022-10-24T06:52:08;17.50;99.90
23568;DHT22;11962;50.838;4.430;2022-10-24T06:54:33;17.30;99.90
23568;DHT22;11962;50.838;4.430;2022-10-24T06:57:01;17.40;99.90
23568;DHT22;11962;50.838;4.430;2022-10-24T06:59:34;17.30;99.90
23568;DHT22;11962;50.838;4.430;2022-10-24T07:01:59;17.30;99.90
23568;DHT22;11962;50.838;4.430;2022-10-24T07:04:25;17.30;99.90
23568;DHT22;11962;50.838;4.430;2022-10-24T07:06:51;17.30;99.90
23568;DHT22;11962;50.838;4.430;2022-10-24T07:09:16;17.20;99.90
23568;DHT22;11962;50.838;4.430;2022-10-24T07:11:43;17.30;99.90
23568;DHT22;11962;50.838;4.430;2022-10-24T07:14:09;17.40;99.90
23568;DHT22;11962;50.838;4.430;2022-10-24T07:16:35;17.50;99.90
23568;DHT22;11962;50.838;4.430;2022-10-24T07:25:45;18.00;99.90
23568;DHT22;11962;50.838;4.430;2022-10-24T07:28:11;18.10;99.90
23568;DHT22;11962;50.838;4.430;2022-10-24T07:30:38;18.00;99.90
23568;DHT22;11962;50.838;4.430;2022-10-24T07:33:04;18.00;99.90
23568;DHT22;11962;50.838;4.430;2022-10-24T07:35:30;17.90;99.90
23568;DHT22;11962;50.838;4.430;2022-10-24T07:37:56;18.00;99.90
23568;DHT22;11962;50.838;4.430;2022-10-24T07:40:22;17.90;99.90
23568;DHT22;11962;50.838;4.430;2022-10-24T07:42:47;17.90;99.90
23568;DHT22;11962;50.838;4.430;2022-10-24T07:45:13;18.00;99.90
23568;DHT22;11962;50.838;4.430;2022-10-24T07:47:39;18.10;99.90
23568;DHT22;11962;50.838;4.430;2022-10-24T07:50:23;18.10;99.90
23568;DHT22;11962;50.838;4.430;2022-10-24T07:52:48;18.20;99.90
23568;DHT22;11962;50.838;4.430;2022-10-24T07:55:14;18.30;99.90
23568;DHT22;11962;50.838;4.430;2022-10-24T08:00:51;18.30;99.90
23568;DHT22;11962;50.838;4.430;2022-10-24T08:03:35;18.30;99.90
23568;DHT22;11962;50.838;4.430;2022-10-24T08:06:06;18.40;99.90
23568;DHT22;11962;50.838;4.430;2022-10-24T08:08:32;18.30;99.90
23568;DHT22;11962;50.838;4.430;2022-10-24T08:10:57;18.30;99.90
23568;DHT22;11962;50.838;4.430;2022-10-24T08:13:23;18.30;99.90
23568;DHT22;11962;50.838;4.430;2022-10-24T08:15:49;18.50;99.90
23568;DHT22;11962;50.838;4.430;2022-10-24T08:18:19;18.50;99.90
23568;DHT22;11962;50.838;4.430;2022-10-24T08:20:54;18.70;99.90
23568;DHT22;11962;50.838;4.430;2022-10-24T08:23:20;18.80;99.90
23568;DHT22;11962;50.838;4.430;2022-10-24T08:25:46;18.90;99.90
23568;DHT22;11962;50.838;4.430;2022-10-24T08:28:11;19.00;99.90
23568;DHT22;11962;50.838;4.430;2022-10-24T08:30:37;19.20;99.90
23568;DHT22;11962;50.838;4.430;2022-10-24T08:33:02;19.30;99.90
23568;DHT22;11962;50.838;4.430;2022-10-24T08:35:28;19.60;99.90
23568;DHT22;11962;50.838;4.430;2022-10-24T08:37:54;20.10;99.90
23568;DHT22;11962;50.838;4.430;2022-10-24T08:40:19;20.80;99.90
23568;DHT22;11962;50.838;4.430;2022-10-24T08:42:46;21.70;99.90
23568;DHT22;11962;50.838;4.430;2022-10-24T08:45:16;22.50;99.90
23568;DHT22;11962;50.838;4.430;2022-10-24T08:47:51;23.80;99.90
23568;DHT22;11962;50.838;4.430;2022-10-24T08:50:50;24.60;99.90
23568;DHT22;11962;50.838;4.430;2022-10-24T08:53:24;25.90;99.90
23568;DHT22;11962;50.838;4.430;2022-10-24T08:55:53;26.50;98.80
23568;DHT22;11962;50.838;4.430;2022-10-24T08:58:41;25.70;98.70
23568;DHT22;11962;50.838;4.430;2022-10-24T09:04:02;25.60;98.00
23568;DHT22;11962;50.838;4.430;2022-10-24T09:06:35;26.10;97.50
23568;DHT22;11962;50.838;4.430;2022-10-24T09:12:02;27.70;93.50
23568;DHT22;11962;50.838;4.430;2022-10-24T09:14:29;28.60;90.50
23568;DHT22;11962;50.838;4.430;2022-10-24T09:19:35;29.20;86.20
23568;DHT22;11962;50.838;4.430;2022-10-24T09:22:01;30.10;80.30
23568;DHT22;11962;50.838;4.430;2022-10-24T09:27:04;30.80;75.00
23568;DHT22;11962;50.838;4.430;2022-10-24T09:29:32;31.30;72.20
23568;DHT22;11962;50.838;4.430;2022-10-24T09:31:59;31.60;68.90
23568;DHT22;11962;50.838;4.430;2022-10-24T09:34:37;31.70;67.00
23568;DHT22;11962;50.838;4.430;2022-10-24T09:37:03;30.80;68.00
23568;DHT22;11962;50.838;4.430;2022-10-24T09:39:31;29.30;70.60
23568;DHT22;11962;50.838;4.430;2022-10-24T09:41:59;29.40;71.80
23568;DHT22;11962;50.838;4.430;2022-10-24T09:44:37;30.00;70.20
23568;DHT22;11962;50.838;4.430;2022-10-24T09:47:05;30.30;68.30
23568;DHT22;11962;50.838;4.430;2022-10-24T09:49:39;29.90;68.60
23568;DHT22;11962;50.838;4.430;2022-10-24T09:52:24;30.20;69.10
23568;DHT22;11962;50.838;4.430;2022-10-24T09:55:17;30.50;67.20
23568;DHT22;11962;50.838;4.430;2022-10-24T09:57:43;30.00;67.90
23568;DHT22;11962;50.838;4.430;2022-10-24T10:03:01;29.10;70.00
23568;DHT22;11962;50.838;4.430;2022-10-24T10:08:35;27.60;74.00
23568;DHT22;11962;50.838;4.430;2022-10-24T10:11:08;26.80;76.30
23568;DHT22;11962;50.838;4.430;2022-10-24T10:13:49;26.10;78.90
23568;DHT22;11962;50.838;4.430;2022-10-24T10:16:32;25.40;81.00
23568;DHT22;11962;50.838;4.430;2022-10-24T10:19:18;25.00;83.00
23568;DHT22;11962;50.838;4.430;2022-10-24T10:24:46;27.40;78.50
23568;DHT22;11962;50.838;4.430;2022-10-24T10:27:36;27.40;78.20
23568;DHT22;11962;50.838;4.430;2022-10-24T10:32:56;27.90;75.30
23568;DHT22;11962;50.838;4.430;2022-10-24T10:35:51;27.30;76.60
23568;DHT22;11962;50.838;4.430;2022-10-24T10:41:21;25.90;81.60
23568;DHT22;11962;50.838;4.430;2022-10-24T10:43:57;26.10;80.50
23568;DHT22;11962;50.838;4.430;2022-10-24T10:52:02;28.20;74.20
23568;DHT22;11962;50.838;4.430;2022-10-24T10:55:06;28.40;73.30
23568;DHT22;11962;50.838;4.430;2022-10-24T10:58:03;28.80;72.70
23568;DHT22;11962;50.838;4.430;2022-10-24T11:00:48;29.20;70.00
23568;DHT22;11962;50.838;4.430;2022-10-24T11:09:00;26.20;77.60
23568;DHT22;11962;50.838;4.430;2022-10-24T11:11:31;25.40;79.80
23568;DHT22;11962;50.838;4.430;2022-10-24T11:16:49;23.80;91.60
23568;DHT22;11962;50.838;4.430;2022-10-24T11:19:40;23.40;92.60
23568;DHT22;11962;50.838;4.430;2022-10-24T11:22:28;23.10;93.20
23568;DHT22;11962;50.838;4.430;2022-10-24T11:25:18;22.90;94.00
23568;DHT22;11962;50.838;4.430;2022-10-24T11:27:51;22.80;94.60
23568;DHT22;11962;50.838;4.430;2022-10-24T11:30:20;22.90;94.60
23568;DHT22;11962;50.838;4.430;2022-10-24T11:32:54;22.70;95.10
23568;DHT22;11962;50.838;4.430;2022-10-24T11:38:32;22.60;96.60
23568;DHT22;11962;50.838;4.430;2022-10-24T11:43:47;22.00;96.90
23568;DHT22;11962;50.838;4.430;2022-10-24T11:46:18;21.80;99.60
23568;DHT22;11962;50.838;4.430;2022-10-24T11:48:52;21.70;99.90
23568;DHT22;11962;50.838;4.430;2022-10-24T11:51:42;21.70;99.90
23568;DHT22;11962;50.838;4.430;2022-10-24T11:54:20;21.60;99.90
23568;DHT22;11962;50.838;4.430;2022-10-24T11:56:54;21.30;99.90
23568;DHT22;11962;50.838;4.430;2022-10-24T11:59:21;21.20;99.90
23568;DHT22;11962;50.838;4.430;2022-10-24T12:14:02;20.10;99.90
23568;DHT22;11962;50.838;4.430;2022-10-24T12:19:18;19.80;99.90
23568;DHT22;11962;50.838;4.430;2022-10-24T12:21:50;19.80;99.90
23568;DHT22;11962;50.838;4.430;2022-10-24T12:26:55;19.70;99.90
23568;DHT22;11962;50.838;4.430;2022-10-24T12:29:25;19.70;99.90
23568;DHT22;11962;50.838;4.430;2022-10-24T12:31:51;19.80;99.90
23568;DHT22;11962;50.838;4.430;2022-10-24T12:39:45;19.90;99.90
23568;DHT22;11962;50.838;4.430;2022-10-24T12:47:39;19.60;99.90
23568;DHT22;11962;50.838;4.430;2022-10-24T12:56:12;19.00;99.90
23568;DHT22;11962;50.838;4.430;2022-10-24T12:58:40;18.90;99.90
23568;DHT22;11962;50.838;4.430;2022-10-24T13:01:27;18.80;99.90
23568;DHT22;11962;50.838;4.430;2022-10-24T13:04:07;18.80;99.90
23568;DHT22;11962;50.838;4.430;2022-10-24T13:12:34;18.70;99.90
23568;DHT22;11962;50.838;4.430;2022-10-24T13:20:28;19.10;99.90
23568;DHT22;11962;50.838;4.430;2022-10-24T13:26:47;19.40;99.90
23568;DHT22;11962;50.838;4.430;2022-10-24T13:31:53;19.50;99.90
23568;DHT22;11962;50.838;4.430;2022-10-24T13:34:28;19.50;99.90
23568;DHT22;11962;50.838;4.430;2022-10-24T13:40:29;19.60;99.90
23568;DHT22;11962;50.838;4.430;2022-10-24T13:43:00;19.60;99.90
23568;DHT22;11962;50.838;4.430;2022-10-24T13:45:32;19.60;99.90
23568;DHT22;11962;50.838;4.430;2022-10-24T13:51:18;19.60;99.90
23568;DHT22;11962;50.838;4.430;2022-10-24T13:53:50;19.50;99.90
23568;DHT22;11962;50.838;4.430;2022-10-24T13:56:18;19.50;99.90
23568;DHT22;11962;50.838;4.430;2022-10-24T13:58:44;19.80;99.90
23568;DHT22;11962;50.838;4.430;2022-10-24T14:01:20;19.90;99.90
23568;DHT22;11962;50.838;4.430;2022-10-24T14:03:46;19.90;99.90
23568;DHT22;11962;50.838;4.430;2022-10-24T14:06:12;19.90;99.90
23568;DHT22;11962;50.838;4.430;2022-10-24T14:08:48;19.90;99.90
23568;DHT22;11962;50.838;4.430;2022-10-24T14:11:20;19.80;99.90
23568;DHT22;11962;50.838;4.430;2022-10-24T14:13:53;19.80;99.90
23568;DHT22;11962;50.838;4.430;2022-10-24T14:16:26;19.80;99.90
23568;DHT22;11962;50.838;4.430;2022-10-24T14:19:19;19.70;99.90
23568;DHT22;11962;50.838;4.430;2022-10-24T14:21:46;19.70;99.90
23568;DHT22;11962;50.838;4.430;2022-10-24T14:24:17;19.60;99.90
23568;DHT22;11962;50.838;4.430;2022-10-24T14:26:43;19.60;99.90
23568;DHT22;11962;50.838;4.430;2022-10-24T14:29:25;19.50;99.90
23568;DHT22;11962;50.838;4.430;2022-10-24T14:32:00;19.40;99.90
23568;DHT22;11962;50.838;4.430;2022-10-24T14:34:27;19.40;99.90
23568;DHT22;11962;50.838;4.430;2022-10-24T14:36:53;19.30;99.90
23568;DHT22;11962;50.838;4.430;2022-10-24T14:39:44;19.20;99.90
23568;DHT22;11962;50.838;4.430;2022-10-24T14:42:15;19.20;99.90
23568;DHT22;11962;50.838;4.430;2022-10-24T14:44:43;19.20;99.90
23568;DHT22;11962;50.838;4.430;2022-10-24T14:47:30;19.30;99.90
23568;DHT22;11962;50.838;4.430;2022-10-24T14:49:57;19.30;99.90
23568;DHT22;11962;50.838;4.430;2022-10-24T14:52:27;19.30;99.90
23568;DHT22;11962;50.838;4.430;2022-10-24T14:55:00;19.30;99.90
23568;DHT22;11962;50.838;4.430;2022-10-24T14:57:28;19.20;99.90
23568;DHT22;11962;50.838;4.430;2022-10-24T14:59:56;19.30;99.90
23568;DHT22;11962;50.838;4.430;2022-10-24T15:02:29;19.40;99.90
23568;DHT22;11962;50.838;4.430;2022-10-24T15:05:15;19.50;99.90
23568;DHT22;11962;50.838;4.430;2022-10-24T15:07:41;19.60;99.90
23568;DHT22;11962;50.838;4.430;2022-10-24T15:20:44;19.00;99.90
23568;DHT22;11962;50.838;4.430;2022-10-24T15:23:33;18.90;99.90
23568;DHT22;11962;50.838;4.430;2022-10-24T15:26:09;19.00;99.90
23568;DHT22;11962;50.838;4.430;2022-10-24T15:31:03;19.10;99.90
23568;DHT22;11962;50.838;4.430;2022-10-24T15:33:33;19.20;99.90
23568;DHT22;11962;50.838;4.430;2022-10-24T15:35:58;19.20;99.90
23568;DHT22;11962;50.838;4.430;2022-10-24T15:38:56;19.10;99.90
23568;DHT22;11962;50.838;4.430;2022-10-24T15:41:22;19.00;99.90
23568;DHT22;11962;50.838;4.430;2022-10-24T15:43:48;18.90;99.90
23568;DHT22;11962;50.838;4.430;2022-10-24T15:46:14;18.80;99.90
23568;DHT22;11962;50.838;4.430;2022-10-24T15:48:40;18.70;99.90
23568;DHT22;11962;50.838;4.430;2022-10-24T15:51:06;18.70;99.90
23568;DHT22;11962;50.838;4.430;2022-10-24T15:53:44;18.60;99.90
23568;DHT22;11962;50.838;4.430;2022-10-24T15:56:10;18.60;99.90
23568;DHT22;11962;50.838;4.430;2022-10-24T15:58:40;18.50;99.90
23568;DHT22;11962;50.838;4.430;2022-10-24T16:01:08;18.40;99.90
23568;DHT22;11962;50.838;4.430;2022-10-24T16:03:43;18.30;99.90
23568;DHT22;11962;50.838;4.430;2022-10-24T16:06:09;18.30;99.90
23568;DHT22;11962;50.838;4.430;2022-10-24T16:09:03;18.20;99.90
23568;DHT22;11962;50.838;4.430;2022-10-24T16:11:28;18.10;99.90
23568;DHT22;11962;50.838;4.430;2022-10-24T16:13:55;18.00;99.90
23568;DHT22;11962;50.838;4.430;2022-10-24T16:16:20;17.90;99.90
23568;DHT22;11962;50.838;4.430;2022-10-24T16:18:46;17.90;99.90
23568;DHT22;11962;50.838;4.430;2022-10-24T16:21:17;17.80;99.90
23568;DHT22;11962;50.838;4.430;2022-10-24T16:23:44;17.70;99.90
23568;DHT22;11962;50.838;4.430;2022-10-24T16:26:10;17.60;99.90
23568;DHT22;11962;50.838;4.430;2022-10-24T16:28:36;17.60;99.90
23568;DHT22;11962;50.838;4.430;2022-10-24T16:31:04;17.50;99.90
23568;DHT22;11962;50.838;4.430;2022-10-24T16:33:30;17.50;99.90
23568;DHT22;11962;50.838;4.430;2022-10-24T16:35:56;17.50;99.90
23568;DHT22;11962;50.838;4.430;2022-10-24T16:38:21;17.40;99.90
23568;DHT22;11962;50.838;4.430;2022-10-24T16:40:47;17.40;99.90
23568;DHT22;11962;50.838;4.430;2022-10-24T16:43:19;17.40;99.90
23568;DHT22;11962;50.838;4.430;2022-10-24T16:45:57;17.40;99.90
23568;DHT22;11962;50.838;4.430;2022-10-24T16:48:23;17.30;99.90
23568;DHT22;11962;50.838;4.430;2022-10-24T16:50:48;17.30;99.90
23568;DHT22;11962;50.838;4.430;2022-10-24T16:53:14;17.20;99.90
23568;DHT22;11962;50.838;4.430;2022-10-24T16:55:47;17.20;99.90
23568;DHT22;11962;50.838;4.430;2022-10-24T16:58:13;17.20;99.90
23568;DHT22;11962;50.838;4.430;2022-10-24T17:00:39;17.20;99.90
23568;DHT22;11962;50.838;4.430;2022-10-24T17:03:05;17.20;99.90
23568;DHT22;11962;50.838;4.430;2022-10-24T17:05:30;17.20;99.90
23568;DHT22;11962;50.838;4.430;2022-10-24T17:07:56;17.10;99.90
23568;DHT22;11962;50.838;4.430;2022-10-24T17:10:40;17.20;99.90
23568;DHT22;11962;50.838;4.430;2022-10-24T17:13:06;17.30;99.90
23568;DHT22;11962;50.838;4.430;2022-10-24T17:15:32;17.30;99.90
23568;DHT22;11962;50.838;4.430;2022-10-24T17:17:57;17.40;99.90
23568;DHT22;11962;50.838;4.430;2022-10-24T17:20:24;17.40;99.90
23568;DHT22;11962;50.838;4.430;2022-10-24T17:22:49;17.40;99.90
23568;DHT22;11962;50.838;4.430;2022-10-24T17:25:20;17.40;99.90
23568;DHT22;11962;50.838;4.430;2022-10-24T17:27:47;17.40;99.90
23568;DHT22;11962;50.838;4.430;2022-10-24T17:30:18;17.40;99.90
23568;DHT22;11962;50.838;4.430;2022-10-24T17:32:45;17.50;99.90
23568;DHT22;11962;50.838;4.430;2022-10-24T17:35:12;17.50;99.90
23568;DHT22;11962;50.838;4.430;2022-10-24T17:37:43;17.50;99.90
23568;DHT22;11962;50.838;4.430;2022-10-24T17:40:21;17.50;99.90
23568;DHT22;11962;50.838;4.430;2022-10-24T17:42:48;17.50;99.90
23568;DHT22;11962;50.838;4.430;2022-10-24T17:45:16;17.60;99.90
23568;DHT22;11962;50.838;4.430;2022-10-24T17:47:43;17.60;99.90
23568;DHT22;11962;50.838;4.430;2022-10-24T17:50:10;17.40;99.90
23568;DHT22;11962;50.838;4.430;2022-10-24T17:52:36;17.10;99.90
23568;DHT22;11962;50.838;4.430;2022-10-24T17:55:19;17.00;99.90
23568;DHT22;11962;50.838;4.430;2022-10-24T17:57:45;16.80;99.90
23568;DHT22;11962;50.838;4.430;2022-10-24T18:00:11;16.60;99.90
23568;DHT22;11962;50.838;4.430;2022-10-24T18:02:48;16.60;99.90
23568;DHT22;11962;50.838;4.430;2022-10-24T18:05:15;16.50;99.90
23568;DHT22;11962;50.838;4.430;2022-10-24T18:07:41;16.40;99.90
23568;DHT22;11962;50.838;4.430;2022-10-24T18:10:07;16.40;99.90
23568;DHT22;11962;50.838;4.430;2022-10-24T18:12:34;16.20;99.90
23568;DHT22;11962;50.838;4.430;2022-10-24T18:15:00;16.20;99.90
23568;DHT22;11962;50.838;4.430;2022-10-24T18:17:27;16.20;99.90